Time;durP1;ratioP1;P1;durP2;ratioP2;P2;SDS_P1;SDS_P2;PMS_P1;PMS_P2;Temp;Humidity;BMP_temperature;BMP_pressure;BME280_temperature;BME280_humidity;BME280_pressure;Samples;Min_cycle;Max_cycle;Signal;HPM_P1;HPM_P2
2024/03/10 00:03:16;;;;;;;6.73;5.13;;;;;;;14.52;42.10;96748.28;6890855;28;20203;-83
2024/03/10 00:06:39;;;;;;;7.03;4.93;;;;;;;14.78;41.75;96760.59;6891384;28;20212;-83
2024/03/10 00:10:00;;;;;;;5.43;4.80;;;;;;;13.77;43.16;96722.31;6890275;28;20315;-84
2024/03/10 00:13:22;;;;;;;5.00;4.50;;;;;;;14.19;43.22;96733.56;6889906;28;20258;-84
2024/03/10 00:16:44;;;;;;;6.37;5.03;;;;;;;14.70;42.00;96739.50;6889468;28;20237;-84
2024/03/10 00:20:08;;;;;;;5.70;5.20;;;;;;;14.39;42.11;96721.81;6890158;28;20599;-83
2024/03/10 00:23:31;;;;;;;6.93;5.13;;;;;;;14.14;42.46;96736.25;6890087;28;20264;-84
2024/03/10 00:26:52;;;;;;;5.60;4.40;;;;;;;14.24;42.31;96727.28;6890901;28;20301;-83
2024/03/10 00:30:14;;;;;;;5.17;4.13;;;;;;;14.63;42.01;96734.38;6890168;28;20730;-84
2024/03/10 00:33:37;;;;;;;6.10;4.40;;;;;;;14.37;42.33;96732.91;6889978;28;20286;-84
2024/03/10 00:36:58;;;;;;;5.20;4.70;;;;;;;14.47;42.15;96719.31;6889218;28;20236;-84
2024/03/10 00:40:23;;;;;;;4.90;4.40;;;;;;;14.53;41.81;96730.94;6890364;28;20323;-84
2024/03/10 00:43:44;;;;;;;5.47;4.67;;;;;;;14.92;41.19;96724.41;6888539;28;20228;-84
2024/03/10 00:47:06;;;;;;;3.87;3.57;;;;;;;14.57;42.20;96719.25;6890464;28;20250;-84
2024/03/10 00:50:29;;;;;;;5.63;4.03;;;;;;;14.85;41.42;96715.78;6890852;28;20264;-83
2024/03/10 00:53:50;;;;;;;5.60;4.70;;;;;;;14.80;41.59;96704.97;6891840;28;20712;-83
2024/03/10 00:57:14;;;;;;;5.40;4.73;;;;;;;14.20;42.49;96708.06;6889753;28;20680;-84
2024/03/10 01:00:35;;;;;;;5.37;4.60;;;;;;;14.73;41.65;96711.81;6889422;28;20314;-83
2024/03/10 01:03:57;;;;;;;4.80;4.40;;;;;;;14.47;41.30;96713.06;6891747;28;20650;-84
2024/03/10 01:07:19;;;;;;;5.20;4.37;;;;;;;14.58;40.56;96711.91;6891506;28;20284;-84
2024/03/10 01:10:41;;;;;;;5.20;4.37;;;;;;;14.15;41.40;96680.16;6891257;28;20218;-84
2024/03/10 01:14:04;;;;;;;5.80;4.47;;;;;;;14.80;40.04;96710.41;6891766;28;20590;-84
2024/03/10 01:17:26;;;;;;;5.70;4.40;;;;;;;15.07;39.85;96710.75;6899976;23;20220;-84
2024/03/10 01:20:47;;;;;;;6.33;4.57;;;;;;;14.77;40.34;96699.31;6890148;28;20312;-84
2024/03/10 01:24:09;;;;;;;5.33;4.83;;;;;;;14.77;40.24;96707.44;6891005;28;20324;-84
2024/03/10 01:27:30;;;;;;;5.20;4.70;;;;;;;14.53;40.99;96699.22;6895606;28;20677;-83
2024/03/10 01:30:53;;;;;;;5.20;4.70;;;;;;;14.58;40.72;96682.88;6893906;28;20301;-84
2024/03/10 01:34:16;;;;;;;4.30;3.90;;;;;;;14.93;40.18;96693.47;6893784;28;20347;-84
2024/03/10 01:37:37;;;;;;;5.17;3.77;;;;;;;15.08;38.77;96679.81;6893397;28;20218;-84
2024/03/10 01:40:59;;;;;;;4.90;4.07;;;;;;;15.32;39.03;96675.25;6893458;28;20267;-84
2024/03/10 01:44:21;;;;;;;5.83;4.30;;;;;;;15.30;39.09;96669.28;6893411;28;20314;-83
2024/03/10 01:47:44;;;;;;;5.40;3.90;;;;;;;14.95;40.34;96652.50;6892658;28;20322;-84
2024/03/10 01:51:06;;;;;;;5.73;4.70;;;;;;;14.80;40.11;96661.56;6892517;28;20212;-84
2024/03/10 01:54:31;;;;;;;5.17;4.67;;;;;;;14.80;38.91;96650.72;6893063;28;20207;-84
2024/03/10 01:57:53;;;;;;;7.13;5.27;;;;;;;14.31;39.65;96658.13;6892662;28;20229;-84
2024/03/10 02:01:15;;;;;;;5.37;4.40;;;;;;;14.79;38.28;96643.69;6892795;28;20210;-84
2024/03/10 02:04:39;;;;;;;3.80;3.40;;;;;;;14.62;38.29;96645.19;6892382;28;20232;-84
2024/03/10 02:08:00;;;;;;;5.53;4.10;;;;;;;14.93;38.47;96619.44;6891976;28;20308;-83
2024/03/10 02:11:22;;;;;;;4.83;3.93;;;;;;;14.95;39.25;96628.09;6892272;28;20239;-84
2024/03/10 02:14:57;;;;;;;6.53;4.53;;;;;;;14.36;40.17;96641.03;6891439;28;20305;-83
2024/03/10 02:18:18;;;;;;;4.60;4.20;;;;;;;14.16;39.96;96633.00;6892936;28;20269;-84
2024/03/10 02:21:41;;;;;;;4.33;3.93;;;;;;;14.14;40.33;96621.63;6892847;28;20204;-83
2024/03/10 02:25:05;;;;;;;5.07;4.23;;;;;;;14.13;39.05;96628.13;6892882;28;20323;-84
2024/03/10 02:28:36;;;;;;;9.23;7.27;;;;;;;14.53;39.06;96617.88;6892234;28;20361;-83
2024/03/10 02:50:14;;;;;;;4.13;3.73;;;;;;;14.56;38.26;96568.47;6891835;28;20246;-84
2024/03/10 02:53:35;;;;;;;4.03;3.63;;;;;;;14.34;38.95;96576.25;6892666;28;20790;-83
2024/03/10 02:56:57;;;;;;;4.03;3.63;;;;;;;14.45;39.01;96575.06;6892384;28;20229;-83
2024/03/10 03:00:19;;;;;;;4.83;3.90;;;;;;;14.10;39.42;96575.31;6891254;28;20234;-84
2024/03/10 03:03:42;;;;;;;5.03;4.23;;;;;;;14.45;38.76;96577.00;6892344;28;20295;-83
2024/03/10 03:07:03;;;;;;;4.87;4.23;;;;;;;14.53;38.09;96571.78;6892123;28;20260;-84
2024/03/10 03:10:25;;;;;;;4.47;3.80;;;;;;;14.27;39.12;96585.81;6892093;28;20381;-83
2024/03/10 03:13:48;;;;;;;4.90;4.23;;;;;;;13.77;39.98;96581.47;6891950;28;20216;-83
2024/03/10 03:17:10;;;;;;;4.37;3.13;;;;;;;14.21;39.32;96567.97;6892688;28;20216;-83
2024/03/10 03:20:34;;;;;;;3.43;3.13;;;;;;;14.28;38.87;96554.91;6892147;28;20650;-84
2024/03/10 03:23:57;;;;;;;3.90;3.50;;;;;;;14.32;38.71;96570.31;6892735;28;20239;-83
2024/03/10 03:27:20;;;;;;;3.53;3.23;;;;;;;14.37;38.48;96553.19;6891992;28;20205;-83
2024/03/10 03:30:43;;;;;;;4.00;3.60;;;;;;;14.59;38.34;96556.25;6891964;28;20205;-84
2024/03/10 03:34:04;;;;;;;3.40;3.10;;;;;;;14.21;38.80;96549.00;6892343;28;20272;-84
2024/03/10 03:37:27;;;;;;;3.77;3.47;;;;;;;14.36;38.36;96544.25;6891850;28;20691;-84
2024/03/10 03:40:49;;;;;;;3.80;3.27;;;;;;;14.22;38.43;96543.28;6891470;28;20697;-84
2024/03/10 03:44:11;;;;;;;3.60;3.30;;;;;;;14.21;38.61;96549.78;6891694;28;20204;-84
2024/03/10 03:47:33;;;;;;;3.93;3.20;;;;;;;14.02;38.46;96550.69;6890944;28;20213;-84
2024/03/10 03:50:54;;;;;;;4.40;3.00;;;;;;;14.12;38.84;96523.53;6889974;28;20239;-83
2024/03/10 03:54:17;;;;;;;3.23;2.97;;;;;;;14.32;37.98;96510.69;6891377;28;20219;-84
2024/03/10 03:57:38;;;;;;;3.33;3.03;;;;;;;14.17;38.54;96507.25;6890859;28;20348;-84
2024/03/10 04:01:00;;;;;;;3.30;3.00;;;;;;;14.16;38.25;96517.28;6890813;28;20259;-84
2024/03/10 04:04:22;;;;;;;3.67;3.37;;;;;;;13.89;38.84;96525.06;6891027;28;20228;-84
2024/03/10 04:07:44;;;;;;;3.37;3.10;;;;;;;13.54;39.44;96505.50;6890365;28;20220;-83
2024/03/10 04:11:06;;;;;;;3.17;2.87;;;;;;;13.75;39.28;96493.47;6890647;28;20303;-84
2024/03/10 04:14:28;;;;;;;5.23;3.17;;;;;;;14.07;38.54;96501.91;6890038;28;20200;-84
2024/03/10 04:17:50;;;;;;;3.70;3.33;;;;;;;13.88;38.75;96479.31;6889808;28;20711;-84
2024/03/10 04:21:12;;;;;;;3.20;2.90;;;;;;;13.67;39.24;96456.97;6889563;28;20188;-83
2024/03/10 04:24:34;;;;;;;3.13;2.83;;;;;;;13.58;38.61;96392.88;6890203;28;20233;-84
2024/03/10 04:27:57;;;;;;;3.20;2.90;;;;;;;13.28;38.81;96328.16;6890231;28;20236;-84
2024/03/10 04:31:18;;;;;;;3.37;2.90;;;;;;;13.67;38.24;96370.31;6889666;28;20204;-84
2024/03/10 04:34:40;;;;;;;3.43;3.10;;;;;;;14.01;37.32;96387.38;6889485;28;20214;-85
2024/03/10 04:38:01;;;;;;;3.00;2.70;;;;;;;14.46;37.30;96441.13;6886031;28;20230;-84
2024/03/10 04:41:26;;;;;;;2.80;2.50;;;;;;;13.75;37.44;96396.78;6888641;28;20220;-83
2024/03/10 04:44:49;;;;;;;4.57;2.90;;;;;;;13.67;37.54;96416.34;6889046;28;20237;-84
2024/03/10 04:48:11;;;;;;;3.07;2.83;;;;;;;13.15;38.30;96408.03;6889719;28;20241;-84
2024/03/10 04:51:33;;;;;;;3.33;2.73;;;;;;;13.58;37.73;96373.94;6889178;28;20232;-84
2024/03/10 04:54:54;;;;;;;2.80;2.60;;;;;;;13.50;38.38;96417.81;6888537;28;20212;-84
2024/03/10 04:58:16;;;;;;;3.47;2.97;;;;;;;12.93;38.71;96395.97;6888544;28;20353;-84
2024/03/10 05:01:40;;;;;;;2.90;2.70;;;;;;;12.87;38.87;96367.31;6898159;28;20256;-85
2024/03/10 05:05:04;;;;;;;3.20;2.90;;;;;;;13.59;37.94;96406.13;6896891;28;20327;-85
2024/03/10 05:08:26;;;;;;;5.13;2.90;;;;;;;12.66;39.22;96379.31;6896253;28;20242;-85
2024/03/10 05:11:48;;;;;;;2.77;2.57;;;;;;;12.66;40.00;96426.09;6895985;28;20263;-84
2024/03/10 05:15:10;;;;;;;3.50;3.20;;;;;;;12.17;40.44;96398.09;6895487;28;20271;-85
2024/03/10 05:18:33;;;;;;;2.83;2.63;;;;;;;12.77;39.37;96434.97;6894743;28;20260;-84
2024/03/10 05:21:55;;;;;;;4.17;3.03;;;;;;;13.21;38.81;96417.75;6895492;28;20350;-85
2024/03/10 05:25:23;;;;;;;3.03;2.83;;;;;;;12.79;39.00;96378.69;6895773;28;20228;-84
2024/03/10 05:28:46;;;;;;;3.07;2.77;;;;;;;13.48;38.71;96433.53;6899669;28;20240;-84
2024/03/10 05:32:10;;;;;;;3.27;2.97;;;;;;;13.57;38.63;96416.41;6895944;28;20204;-84
2024/03/10 05:35:42;;;;;;;3.00;2.70;;;;;;;12.96;38.80;96339.44;6895702;28;20221;-85
2024/03/10 05:39:15;;;;;;;3.90;2.90;;;;;;;13.35;38.94;96439.59;6894838;28;20278;-84
2024/03/10 05:42:40;;;;;;;3.53;3.23;;;;;;;12.72;39.31;96357.41;6895837;28;20226;-85
2024/03/10 05:46:02;;;;;;;2.97;2.67;;;;;;;12.85;39.10;96342.44;6895536;28;20279;-84
2024/03/10 05:53:17;;;;;;;2.90;2.70;;;;;;;13.01;38.20;96346.72;6893127;28;20213;-85
2024/03/10 05:56:52;;;;;;;2.70;2.50;;;;;;;13.13;37.96;96412.94;6895308;28;20212;-85
2024/03/10 06:00:31;;;;;;;2.67;2.47;;;;;;;13.19;38.57;96467.81;6893781;28;20225;-84
2024/03/10 06:04:04;;;;;;;2.97;2.70;;;;;;;12.25;40.03;96421.03;6895234;28;20221;-85
2024/03/10 06:07:28;;;;;;;3.10;2.80;;;;;;;12.12;40.24;96421.63;6885414;28;20228;-84
2024/03/10 06:15:10;;;;;;;2.87;2.67;;;;;;;12.85;38.96;96435.19;6897542;28;20193;-84
2024/03/10 06:26:25;;;;;;;3.17;2.47;;;;;;;13.06;38.91;96420.53;6861725;28;20234;-84
2024/03/10 06:29:47;;;;;;;2.83;2.50;;;;;;;13.47;38.65;96450.88;6863929;28;20365;-86
2024/03/10 06:33:13;;;;;;;3.93;2.63;;;;;;;13.31;38.14;96401.44;6864464;28;20272;-82
2024/03/10 06:36:35;;;;;;;4.30;2.70;;;;;;;13.46;38.87;96452.75;6870345;28;20735;-84
2024/03/10 06:39:56;;;;;;;2.77;2.40;;;;;;;13.21;38.90;96468.34;6867813;28;20232;-84
2024/03/10 06:43:18;;;;;;;3.17;2.90;;;;;;;14.00;38.12;96468.91;6872162;28;20206;-84
2024/03/10 06:46:39;;;;;;;2.83;2.60;;;;;;;14.00;38.13;96464.31;6872584;28;20311;-84
2024/03/10 06:50:04;;;;;;;2.83;2.60;;;;;;;14.15;37.78;96447.13;6870927;28;20445;-84
2024/03/10 06:53:26;;;;;;;2.97;2.77;;;;;;;14.20;37.50;96461.47;6871659;28;20206;-84
2024/03/10 06:56:51;;;;;;;3.13;2.70;;;;;;;14.01;37.87;96441.56;6869368;28;20208;-84
2024/03/10 07:00:14;;;;;;;2.90;2.70;;;;;;;13.73;38.28;96468.56;6865855;28;20240;-82
2024/03/10 07:04:18;;;;;;;2.93;2.67;;;;;;;13.66;38.33;96439.09;6866303;28;20685;-84
2024/03/10 07:08:09;;;;;;;3.33;2.43;;;;;;;14.09;37.74;96445.56;6872158;28;20228;-85
2024/03/10 07:35:04;;;;;;;2.60;2.40;;;;;;;14.08;37.40;96412.22;7745595;23;20270;-85
2024/03/10 08:01:21;;;;;;;2.50;2.30;;;;;;;14.86;36.01;96424.44;7891834;23;20754;-85
2024/03/10 08:04:43;;;;;;;3.03;2.80;;;;;;;14.63;36.23;96448.84;6839123;28;20204;-84
2024/03/10 08:13:16;;;;;;;3.37;3.07;;;;;;;15.16;34.90;96323.63;6840850;29;20184;-83
2024/03/10 08:16:39;;;;;;;2.27;2.10;;;;;;;15.78;34.05;96434.59;6797514;28;20238;-84
2024/03/10 08:20:00;;;;;;;2.63;2.33;;;;;;;15.73;34.87;96433.84;6839329;28;20254;-84
2024/03/10 08:23:22;;;;;;;2.60;2.40;;;;;;;16.14;33.83;96435.66;6840182;29;20310;-84
2024/03/10 09:52:01;;;;;;;2.43;2.23;;;;;;;15.74;33.83;96280.66;6895524;28;20597;-82
2024/03/10 10:25:31;;;;;;;2.50;2.30;;;;;;;15.71;35.86;96368.16;6721227;29;20210;-83
2024/03/10 10:37:53;;;;;;;3.43;2.40;;;;;;;17.04;34.96;96384.19;6707357;29;20207;-84
2024/03/10 10:50:24;;;;;;;2.57;2.20;;;;;;;17.24;33.83;96383.75;6829207;23;20326;-83
2024/03/10 10:53:48;;;;;;;2.47;2.27;;;;;;;17.60;33.77;96387.31;6894563;28;20206;-84
2024/03/10 10:57:10;;;;;;;2.20;2.03;;;;;;;16.78;34.92;96385.81;6894196;28;20210;-83
2024/03/10 11:17:51;;;;;;;3.10;2.17;;;;;;;16.58;35.98;96299.16;6636637;23;20207;-83
2024/03/10 11:21:50;;;;;;;2.30;2.10;;;;;;;18.05;34.31;96340.66;6813232;29;20771;-83
2024/03/10 11:25:16;;;;;;;2.40;2.20;;;;;;;17.93;34.34;96345.09;6814815;29;20261;-84
2024/03/10 11:41:48;;;;;;;2.40;2.20;;;;;;;18.09;33.97;96349.03;6851289;23;20300;-83
2024/03/10 11:46:08;;;;;;;4.40;2.30;;;;;;;17.65;32.91;96218.25;6830159;28;20206;-84
2024/03/10 11:53:55;;;;;;;2.70;2.47;;;;;;;18.71;32.51;96362.38;6814559;28;20237;-86
2024/03/10 11:57:18;;;;;;;2.47;2.27;;;;;;;17.71;33.63;96283.22;6835344;29;20619;-83
2024/03/10 12:00:39;;;;;;;2.53;2.33;;;;;;;18.67;33.35;96385.16;6839675;29;20719;-85
2024/03/10 12:04:05;;;;;;;4.80;2.40;;;;;;;19.10;33.50;96380.66;6839349;29;20209;-83
2024/03/10 12:07:27;;;;;;;2.60;2.10;;;;;;;19.75;31.91;96381.41;6838632;29;20224;-85
2024/03/10 12:10:58;;;;;;;2.50;2.30;;;;;;;18.94;32.20;96393.94;6819653;28;20305;-83
2024/03/10 12:14:21;;;;;;;2.63;2.20;;;;;;;19.36;32.60;96384.28;6795680;29;20242;-83
2024/03/10 12:17:42;;;;;;;2.50;2.30;;;;;;;19.26;32.70;96369.00;6794527;29;20219;-83
2024/03/10 12:21:06;;;;;;;3.03;2.73;;;;;;;19.47;32.30;96371.91;6790964;29;20307;-85
2024/03/10 12:24:28;;;;;;;2.40;2.20;;;;;;;18.14;33.33;96368.81;6818562;29;20220;-85
2024/03/10 12:27:51;;;;;;;2.53;2.33;;;;;;;17.36;35.45;96370.41;6801331;29;20243;-85
2024/03/10 12:31:14;;;;;;;2.80;2.50;;;;;;;17.79;34.47;96355.25;6822988;29;20211;-85
2024/03/10 12:34:35;;;;;;;2.43;2.30;;;;;;;18.00;34.94;96340.00;6828452;29;20210;-84
2024/03/10 12:37:57;;;;;;;2.53;2.30;;;;;;;18.52;34.79;96364.53;6826875;29;20229;-86
2024/03/10 12:41:20;;;;;;;2.90;2.60;;;;;;;18.63;34.55;96357.69;6825204;29;20235;-84
2024/03/10 12:44:43;;;;;;;2.87;2.63;;;;;;;18.53;34.38;96336.16;6827846;29;20301;-85
2024/03/10 12:48:05;;;;;;;3.83;2.43;;;;;;;18.84;34.08;96363.38;6822248;29;20230;-85
2024/03/10 12:51:27;;;;;;;2.70;2.50;;;;;;;19.12;33.65;96372.94;6800095;29;20292;-84
2024/03/10 12:54:49;;;;;;;2.40;2.20;;;;;;;19.25;34.08;96356.47;6796807;29;20690;-85
2024/03/10 12:58:13;;;;;;;2.53;2.30;;;;;;;19.74;32.89;96347.78;6797244;29;20238;-84
2024/03/10 13:01:36;;;;;;;2.43;2.23;;;;;;;19.26;33.84;96371.72;6793523;29;20207;-84
2024/03/10 13:04:58;;;;;;;2.90;2.70;;;;;;;19.84;32.44;96379.47;6792328;29;20211;-85
2024/03/10 13:08:20;;;;;;;3.97;2.57;;;;;;;19.65;33.56;96379.00;6791610;29;20254;-84
2024/03/10 13:11:41;;;;;;;3.70;2.57;;;;;;;19.65;33.10;96362.59;6815292;29;20569;-84
2024/03/10 13:15:04;;;;;;;2.60;2.40;;;;;;;19.71;32.94;96366.78;6817113;29;20298;-86
2024/03/10 13:18:27;;;;;;;2.50;2.30;;;;;;;20.10;32.65;96364.69;6815837;29;20706;-84
2024/03/10 13:21:49;;;;;;;3.47;2.20;;;;;;;18.46;33.60;96297.59;6807740;29;20714;-85
2024/03/10 13:25:11;;;;;;;2.60;2.40;;;;;;;19.40;32.51;96377.84;6827237;29;20242;-85
2024/03/10 13:28:33;;;;;;;2.40;2.20;;;;;;;19.80;32.43;96373.06;6818635;29;20678;-86
2024/03/10 13:31:54;;;;;;;2.50;2.30;;;;;;;19.35;31.71;96333.50;6809095;29;20222;-85
2024/03/10 13:35:19;;;;;;;4.13;2.40;;;;;;;19.54;32.72;96389.44;6815640;29;20203;-86
2024/03/10 13:38:41;;;;;;;2.60;2.40;;;;;;;19.53;32.69;96389.75;6827096;29;20237;-85
2024/03/10 13:42:03;;;;;;;2.33;2.00;;;;;;;19.51;32.75;96401.00;6824771;29;20657;-85
2024/03/10 13:45:25;;;;;;;2.77;2.57;;;;;;;19.50;33.48;96396.66;6822715;29;20207;-85
2024/03/10 13:48:46;;;;;;;3.30;2.57;;;;;;;18.65;35.57;96406.50;6836587;29;20320;-86
2024/03/10 13:52:15;;;;;;;2.60;2.40;;;;;;;18.66;36.29;96402.66;6814887;29;20207;-86
2024/03/10 13:55:39;;;;;;;4.23;2.37;;;;;;;18.73;36.14;96416.63;6797860;29;20203;-86
2024/03/10 13:59:03;;;;;;;3.10;2.80;;;;;;;18.64;36.21;96432.97;6819311;29;20250;-84
2024/03/10 14:02:25;;;;;;;3.07;2.70;;;;;;;18.27;35.93;96369.84;6829965;29;20219;-83
2024/03/10 14:05:47;;;;;;;2.63;2.43;;;;;;;18.58;35.74;96445.13;6821806;29;20760;-84
2024/03/10 14:09:14;;;;;;;2.80;2.57;;;;;;;18.25;36.89;96442.97;6839408;29;20237;-83
2024/03/10 14:12:36;;;;;;;4.77;2.53;;;;;;;18.15;36.92;96426.84;6827167;29;20567;-84
2024/03/10 14:15:58;;;;;;;3.27;2.97;;;;;;;18.07;36.79;96430.34;6825083;29;20262;-84
2024/03/10 14:19:20;;;;;;;3.50;3.20;;;;;;;17.86;37.10;96451.81;6833328;29;20240;-84
2024/03/10 14:22:42;;;;;;;4.53;3.43;;;;;;;17.67;37.99;96461.25;6840263;29;20245;-84
2024/03/10 14:26:05;;;;;;;4.00;3.60;;;;;;;17.12;38.96;96474.13;6825300;29;20208;-84
2024/03/10 14:29:27;;;;;;;4.77;3.80;;;;;;;17.30;38.57;96488.72;6794614;29;20241;-84
2024/03/10 14:32:48;;;;;;;3.90;3.60;;;;;;;16.89;38.66;96456.06;6793002;29;20211;-84
2024/03/10 14:36:10;;;;;;;4.20;3.27;;;;;;;17.17;38.31;96490.34;6811558;29;20227;-84
2024/03/10 14:39:32;;;;;;;3.70;3.40;;;;;;;17.41;38.42;96492.91;6813528;29;20219;-84
2024/03/10 14:42:56;;;;;;;4.30;3.47;;;;;;;17.41;37.87;96498.34;6799185;29;20218;-84
2024/03/10 14:46:19;;;;;;;4.07;3.67;;;;;;;17.08;38.55;96486.72;6814529;29;20250;-83
2024/03/10 14:49:40;;;;;;;3.93;3.50;;;;;;;17.37;38.47;96495.41;6811198;29;20244;-83
2024/03/10 14:53:02;;;;;;;3.90;3.50;;;;;;;17.54;38.54;96492.06;6801181;29;20207;-83
2024/03/10 14:56:23;;;;;;;4.07;3.67;;;;;;;17.61;38.35;96508.81;6812498;29;20663;-83
2024/03/10 14:59:47;;;;;;;4.20;3.40;;;;;;;16.95;38.75;96440.44;6796510;29;20235;-83
2024/03/10 15:03:10;;;;;;;3.47;3.17;;;;;;;17.13;38.86;96505.69;6812940;29;20214;-84
2024/03/10 15:06:32;;;;;;;5.27;4.23;;;;;;;17.56;38.32;96523.34;6808441;29;20200;-83
2024/03/10 15:09:57;;;;;;;5.33;3.73;;;;;;;17.60;37.92;96501.75;6810330;29;20230;-83
2024/03/10 15:13:20;;;;;;;5.80;4.20;;;;;;;17.10;38.81;96487.22;6795841;29;20818;-84
2024/03/10 15:16:45;;;;;;;5.67;4.27;;;;;;;17.22;38.88;96494.91;6796926;29;20206;-84
2024/03/10 15:20:09;;;;;;;3.77;3.40;;;;;;;17.65;38.52;96488.84;6794877;29;20226;-84
2024/03/10 15:23:31;;;;;;;5.93;4.47;;;;;;;17.11;39.08;96509.81;6810745;29;20217;-84
2024/03/10 15:26:52;;;;;;;5.77;5.10;;;;;;;16.88;39.44;96497.19;6808026;29;20257;-84
2024/03/10 15:30:17;;;;;;;6.90;5.27;;;;;;;16.13;40.84;96490.31;6796337;29;20222;-84
2024/03/10 15:33:40;;;;;;;7.93;5.50;;;;;;;16.42;40.92;96490.94;6816297;29;20722;-83
2024/03/10 15:37:05;;;;;;;6.47;5.77;;;;;;;16.47;40.92;96497.13;6816890;29;20669;-84
2024/03/10 15:40:28;;;;;;;6.70;6.03;;;;;;;16.51;41.55;96502.78;6817961;29;20240;-84
2024/03/10 15:43:50;;;;;;;6.00;5.40;;;;;;;16.54;41.32;96502.16;6817538;29;20719;-84
2024/03/10 15:47:11;;;;;;;7.23;6.30;;;;;;;16.73;41.20;96489.28;6806534;29;20282;-84
2024/03/10 15:50:35;;;;;;;7.43;6.07;;;;;;;16.73;41.01;96505.63;6797625;29;20236;-84
2024/03/10 15:53:56;;;;;;;7.27;6.33;;;;;;;16.47;41.69;96499.03;6817887;29;20258;-84
2024/03/10 15:57:19;;;;;;;7.33;6.10;;;;;;;15.95;42.57;96516.41;6816151;29;20236;-84
2024/03/10 16:00:41;;;;;;;7.43;6.37;;;;;;;16.47;41.66;96507.19;6803788;29;20218;-84
2024/03/10 16:04:06;;;;;;;7.30;6.03;;;;;;;16.48;41.43;96531.38;6802191;29;20725;-84
2024/03/10 16:07:29;;;;;;;7.03;5.87;;;;;;;16.56;41.35;96530.69;6811122;29;20640;-84
2024/03/10 16:10:51;;;;;;;7.30;6.30;;;;;;;16.26;41.93;96552.06;6809977;29;20220;-84
2024/03/10 16:14:16;;;;;;;8.60;6.57;;;;;;;16.43;41.40;96550.47;6813859;29;20611;-84
2024/03/10 16:17:38;;;;;;;8.73;7.23;;;;;;;16.45;41.52;96583.63;6815459;29;20309;-84
2024/03/10 16:21:00;;;;;;;7.63;6.60;;;;;;;16.07;42.28;96600.19;6792043;29;20324;-84
2024/03/10 16:24:23;;;;;;;8.00;6.87;;;;;;;15.87;42.77;96606.72;6804907;29;20686;-84
2024/03/10 16:27:46;;;;;;;8.73;6.50;;;;;;;15.70;43.44;96598.25;6815593;29;20775;-85
2024/03/10 16:31:08;;;;;;;8.17;6.70;;;;;;;15.70;43.43;96603.66;6808005;29;20255;-85
2024/03/10 16:34:30;;;;;;;8.40;7.00;;;;;;;15.74;42.58;96596.56;6823080;29;20242;-84
2024/03/10 16:37:52;;;;;;;8.47;7.33;;;;;;;15.78;42.61;96586.75;6818421;29;20267;-84
2024/03/10 16:41:15;;;;;;;8.13;7.03;;;;;;;15.91;42.61;96601.50;6817492;29;20200;-84
2024/03/10 16:44:37;;;;;;;9.37;7.13;;;;;;;16.08;42.24;96586.34;6806576;29;20232;-84
2024/03/10 16:47:59;;;;;;;8.50;7.23;;;;;;;15.83;42.82;96594.84;6807877;29;20243;-83
2024/03/10 16:51:20;;;;;;;8.30;6.57;;;;;;;15.94;42.99;96604.47;6814219;29;20324;-85
2024/03/10 16:54:43;;;;;;;8.20;6.93;;;;;;;15.96;42.44;96580.53;6810816;29;20208;-85
2024/03/10 16:58:07;;;;;;;9.87;7.07;;;;;;;15.64;43.28;96591.25;6817364;29;20568;-84
2024/03/10 17:01:29;;;;;;;9.00;7.23;;;;;;;15.79;43.15;96609.25;6805551;29;20205;-85
2024/03/10 17:04:50;;;;;;;7.87;6.67;;;;;;;16.01;42.90;96609.53;6790607;29;20696;-85
2024/03/10 17:08:13;;;;;;;10.70;7.70;;;;;;;15.82;43.25;96601.34;6788388;29;20789;-86
2024/03/10 17:11:35;;;;;;;8.47;7.40;;;;;;;15.69;43.73;96604.78;6791541;29;20205;-85
2024/03/10 17:14:58;;;;;;;9.40;7.37;;;;;;;15.55;43.65;96598.44;6802674;29;20228;-84
2024/03/10 17:18:20;;;;;;;7.80;7.00;;;;;;;15.19;43.83;96556.47;6826412;29;20227;-84
2024/03/10 17:21:43;;;;;;;8.80;7.30;;;;;;;15.64;44.01;96623.06;6822985;29;20275;-85
2024/03/10 17:25:05;;;;;;;30.13;26.43;;;;;;;15.63;43.96;96630.38;6810732;29;20211;-84
2024/03/10 17:28:26;;;;;;;12.10;10.17;;;;;;;15.28;44.21;96609.03;6812673;29;20384;-84
2024/03/10 17:31:49;;;;;;;12.23;9.00;;;;;;;15.09;44.48;96629.03;6795187;29;20245;-84
2024/03/10 17:35:11;;;;;;;10.87;8.67;;;;;;;15.25;44.28;96653.03;6808665;29;20198;-84
2024/03/10 17:38:33;;;;;;;11.27;8.97;;;;;;;15.11;45.26;96654.78;6821415;29;20284;-84
2024/03/10 17:41:55;;;;;;;11.77;9.23;;;;;;;15.40;44.28;96658.34;6823195;29;20227;-83
2024/03/10 17:45:16;;;;;;;10.00;8.73;;;;;;;15.48;44.24;96687.59;6829817;29;20387;-84
2024/03/10 17:48:40;;;;;;;11.33;9.77;;;;;;;14.99;45.34;96665.22;6831918;29;20233;-84
2024/03/10 17:52:01;;;;;;;12.40;9.70;;;;;;;14.79;46.27;96702.53;6837061;29;20227;-84
2024/03/10 17:55:23;;;;;;;12.37;10.70;;;;;;;15.00;45.34;96693.16;6824858;29;20207;-84
2024/03/10 17:58:47;;;;;;;13.93;9.57;;;;;;;15.18;45.41;96706.84;6846272;29;20245;-84
2024/03/10 18:02:09;;;;;;;12.20;9.20;;;;;;;15.27;45.23;96701.63;6848736;29;20207;-84
2024/03/10 18:05:32;;;;;;;12.60;9.90;;;;;;;15.16;45.54;96703.59;6841270;29;20215;-84
2024/03/10 18:08:55;;;;;;;12.17;10.10;;;;;;;15.26;45.53;96725.25;6842452;28;20238;-84
2024/03/10 18:12:17;;;;;;;12.77;10.97;;;;;;;15.02;46.02;96726.25;6826119;29;20282;-84
2024/03/10 18:15:40;;;;;;;13.27;11.13;;;;;;;15.38;45.73;96717.56;6822857;29;20207;-84
2024/03/10 18:19:02;;;;;;;11.90;10.13;;;;;;;14.83;47.05;96734.28;6822306;29;20621;-84
2024/03/10 18:22:25;;;;;;;12.80;10.07;;;;;;;14.88;47.61;96747.81;6812366;29;20203;-84
2024/03/10 18:25:47;;;;;;;13.33;10.83;;;;;;;15.26;46.69;96765.13;6795525;29;20220;-84
2024/03/10 18:29:09;;;;;;;12.30;9.83;;;;;;;15.17;47.04;96773.06;6795408;29;20597;-84
2024/03/10 18:32:31;;;;;;;14.77;11.60;;;;;;;14.85;47.55;96788.22;6795879;29;20668;-85
2024/03/10 18:35:52;;;;;;;13.57;10.87;;;;;;;15.20;47.04;96793.41;6817665;29;20246;-84
2024/03/10 18:39:17;;;;;;;13.53;10.40;;;;;;;15.10;47.29;96798.94;6817584;29;20223;-84
2024/03/10 18:42:41;;;;;;;14.20;11.13;;;;;;;15.50;45.96;96807.59;6795856;29;20206;-85
2024/03/10 18:46:03;;;;;;;13.57;10.97;;;;;;;15.29;46.48;96797.16;6796764;29;20219;-84
2024/03/10 18:49:27;;;;;;;18.43;10.47;;;;;;;15.55;45.79;96807.56;6796021;29;20240;-84
2024/03/10 18:52:49;;;;;;;13.20;10.60;;;;;;;15.64;45.51;96818.63;6808900;29;20199;-84
2024/03/10 18:56:13;;;;;;;15.17;10.07;;;;;;;15.44;46.53;96837.78;6814683;29;20235;-84
2024/03/10 18:59:35;;;;;;;12.27;9.77;;;;;;;15.27;47.09;96821.06;6802739;29;20228;-84
2024/03/10 19:02:56;;;;;;;12.23;9.47;;;;;;;14.78;50.26;96804.84;6803905;29;20211;-83
2024/03/10 19:06:18;;;;;;;11.93;9.53;;;;;;;14.36;52.33;96836.19;6827615;29;20630;-83
2024/03/10 19:09:40;;;;;;;12.13;9.53;;;;;;;14.25;53.25;96840.84;6828757;29;20234;-83
2024/03/10 19:13:04;;;;;;;10.87;9.03;;;;;;;13.78;54.80;96815.19;6836737;29;20262;-83
2024/03/10 19:16:26;;;;;;;14.03;10.20;;;;;;;13.87;55.20;96846.84;6838543;29;20208;-84
2024/03/10 19:19:48;;;;;;;9.53;8.40;;;;;;;13.83;55.67;96847.69;6840325;29;20237;-84
2024/03/10 19:23:09;;;;;;;13.97;10.43;;;;;;;13.03;58.31;96813.28;6826249;29;20207;-83
2024/03/10 19:26:31;;;;;;;9.97;8.90;;;;;;;12.99;59.48;96852.75;6824471;29;20248;-83
2024/03/10 19:29:54;;;;;;;11.07;8.80;;;;;;;13.70;58.08;96859.84;6824960;29;20331;-83
2024/03/10 19:33:15;;;;;;;11.27;8.80;;;;;;;13.57;58.31;96867.75;6823842;29;20221;-83
2024/03/10 19:36:40;;;;;;;10.90;8.80;;;;;;;13.94;57.31;96884.50;6823396;29;20218;-82
2024/03/10 19:40:01;;;;;;;11.13;9.23;;;;;;;13.84;57.52;96869.06;6805655;29;20235;-83
2024/03/10 19:43:23;;;;;;;12.23;9.50;;;;;;;13.28;57.88;96853.09;6797129;29;20225;-83
2024/03/10 19:46:46;;;;;;;10.90;8.63;;;;;;;13.28;59.01;96899.09;6796008;29;20212;-83
2024/03/10 19:50:08;;;;;;;9.73;7.70;;;;;;;13.56;57.61;96895.88;6798658;29;20310;-83
2024/03/10 19:53:30;;;;;;;7.97;7.17;;;;;;;13.01;58.25;96877.69;6795317;29;20220;-84
2024/03/10 19:56:52;;;;;;;8.27;7.07;;;;;;;13.12;58.53;96914.50;6794515;29;20217;-83
2024/03/10 20:00:15;;;;;;;7.47;6.67;;;;;;;13.12;58.57;96938.03;6793950;29;20228;-84
2024/03/10 20:03:40;;;;;;;7.77;6.60;;;;;;;13.04;58.26;96925.81;6794741;29;20315;-83
2024/03/10 20:07:01;;;;;;;7.57;6.60;;;;;;;13.10;57.38;96907.72;6794198;29;20670;-84
2024/03/10 20:10:23;;;;;;;7.60;5.17;;;;;;;12.62;57.52;96918.88;6791396;29;20235;-84